createdAt,value
2019-03-16T00:00:01.725Z,26.73
2019-03-16T00:01:01.707Z,26.73
2019-03-16T00:02:01.691Z,27.13
2019-03-16T00:03:01.661Z,26.92
2019-03-16T00:04:01.634Z,27.01
2019-03-16T00:05:01.618Z,26.63
2019-03-16T00:06:01.601Z,26.64
2019-03-16T00:07:01.582Z,26.54
2019-03-16T00:08:01.550Z,26.82
2019-03-16T00:09:01.533Z,26.92
2019-03-16T00:10:01.532Z,26.82
2019-03-16T00:11:01.492Z,26.63
2019-03-16T00:12:01.769Z,26.84
2019-03-16T00:13:01.454Z,26.82
2019-03-16T00:14:01.415Z,26.82
2019-03-16T00:15:01.408Z,26.73
2019-03-16T00:16:01.385Z,26.82
2019-03-16T00:17:01.357Z,26.82
2019-03-16T00:18:01.330Z,26.73
2019-03-16T00:19:01.338Z,26.73
2019-03-16T00:20:01.299Z,26.73
2019-03-16T00:21:01.269Z,26.92
2019-03-16T00:22:01.255Z,26.63
2019-03-16T00:23:01.332Z,26.82
2019-03-16T00:24:01.296Z,26.82
2019-03-16T00:25:01.297Z,26.63
2019-03-16T00:26:01.174Z,26.84
2019-03-16T00:27:01.137Z,26.73
2019-03-16T00:28:01.130Z,26.73
2019-03-16T00:29:01.199Z,26.63
2019-03-16T00:30:01.083Z,26.92
2019-03-16T00:31:01.052Z,26.82
2019-03-16T00:32:12.755Z,26.63
2019-03-16T00:33:01.017Z,26.92
2019-03-16T00:34:00.998Z,26.82
2019-03-16T00:35:00.971Z,26.64
2019-03-16T00:36:00.948Z,26.82
2019-03-16T00:37:00.931Z,26.82
2019-03-16T00:38:00.916Z,26.82
2019-03-16T00:39:00.952Z,26.63
2019-03-16T00:40:00.858Z,26.73
2019-03-16T00:41:00.865Z,26.84
2019-03-16T00:42:00.819Z,26.63
2019-03-16T00:43:00.809Z,26.84
2019-03-16T00:44:00.874Z,26.63
2019-03-16T00:45:00.761Z,26.63
2019-03-16T00:46:00.730Z,26.84
2019-03-16T00:47:00.757Z,26.73
2019-03-16T00:48:00.700Z,26.73
2019-03-16T00:49:00.674Z,27.11
2019-03-16T00:50:00.643Z,27.01
2019-03-16T00:51:00.631Z,26.73
2019-03-16T00:52:00.613Z,26.63
2019-03-16T00:53:00.584Z,26.63
2019-03-16T00:54:00.316Z,26.64
2019-03-16T00:55:00.604Z,26.43
2019-03-16T00:56:00.537Z,26.63
2019-03-16T00:57:00.505Z,26.73
2019-03-16T00:58:00.483Z,26.73
2019-03-16T00:59:00.450Z,26.63
2019-03-16T01:00:00.466Z,26.43
2019-03-16T01:01:00.412Z,26.63
2019-03-16T01:02:00.398Z,26.43
2019-03-16T01:03:00.365Z,26.63
2019-03-16T01:04:00.344Z,26.63
2019-03-16T01:05:00.522Z,26.43
2019-03-16T01:06:00.313Z,26.25
2019-03-16T01:07:00.286Z,26.25
2019-03-16T01:08:00.263Z,26.15
2019-03-16T01:09:00.243Z,26.34
2019-03-16T01:10:00.436Z,25.95
2019-03-16T01:11:00.205Z,26.05
2019-03-16T01:12:00.171Z,25.95
2019-03-16T01:13:00.223Z,26.05
2019-03-16T01:14:00.130Z,25.85
2019-03-16T01:15:00.120Z,26.05
2019-03-16T01:16:00.086Z,25.95
2019-03-16T01:17:00.069Z,25.95
2019-03-16T01:18:00.053Z,26.25
2019-03-16T01:19:00.034Z,26.15
2019-03-16T01:20:00.014Z,26.34
2019-03-16T01:20:59.985Z,26.34
2019-03-16T01:21:59.961Z,26.15
2019-03-16T01:22:59.951Z,26.05
2019-03-16T01:23:59.935Z,26.05
2019-03-16T01:24:59.898Z,26.26
2019-03-16T01:25:59.875Z,26.05
2019-03-16T01:26:59.851Z,26.05
2019-03-16T01:27:59.840Z,26.15
2019-03-16T01:28:59.812Z,26.05
2019-03-16T01:29:59.796Z,26.05
2019-03-16T01:30:59.766Z,26.05
2019-03-16T01:31:59.755Z,26.05
2019-03-16T01:32:59.727Z,26.05
2019-03-16T01:33:59.709Z,25.95
2019-03-16T01:34:59.679Z,26.05
2019-03-16T01:35:59.660Z,25.85
2019-03-16T01:36:59.643Z,25.95
2019-03-16T01:37:59.699Z,25.95
2019-03-16T01:38:59.607Z,25.85
2019-03-16T01:39:59.572Z,25.85
2019-03-16T01:40:59.557Z,25.85
2019-03-16T01:41:59.538Z,25.76
2019-03-16T01:42:59.518Z,25.95
2019-03-16T01:43:59.490Z,25.95
2019-03-16T01:44:59.502Z,25.95
2019-03-16T01:45:59.444Z,26.05
2019-03-16T01:46:59.440Z,26.05
2019-03-16T01:47:59.403Z,25.66
2019-03-16T01:48:59.385Z,25.76
2019-03-16T01:49:59.357Z,25.76
2019-03-16T01:50:59.348Z,25.56
2019-03-16T01:51:59.324Z,25.66
2019-03-16T01:52:59.310Z,25.47
2019-03-16T01:53:59.273Z,25.56
2019-03-16T01:54:59.258Z,25.47
2019-03-16T01:55:59.243Z,25.66
2019-03-16T01:56:59.212Z,25.56
2019-03-16T01:57:59.313Z,25.56
2019-03-16T01:58:59.164Z,25.56
2019-03-16T01:59:59.154Z,25.66
2019-03-16T02:00:59.126Z,25.66
2019-03-16T02:01:59.120Z,25.66
2019-03-16T02:02:59.086Z,25.56
2019-03-16T02:03:59.067Z,25.66
2019-03-16T02:04:59.042Z,25.66
2019-03-16T02:05:59.027Z,25.56
2019-03-16T02:06:58.992Z,26.05
2019-03-16T02:07:58.969Z,25.66
2019-03-16T02:08:58.962Z,25.76
2019-03-16T02:09:58.941Z,25.85
2019-03-16T02:10:58.916Z,25.95
2019-03-16T02:12:00.464Z,25.85
2019-03-16T02:12:58.870Z,25.76
2019-03-16T02:13:58.852Z,25.85
2019-03-16T02:14:58.835Z,25.66
2019-03-16T02:16:12.778Z,25.76
2019-03-16T02:16:58.784Z,25.76
2019-03-16T02:17:58.759Z,25.76
2019-03-16T02:18:58.750Z,26.05
2019-03-16T02:19:58.714Z,25.85
2019-03-16T02:20:58.696Z,25.95
2019-03-16T02:21:58.672Z,25.85
2019-03-16T02:22:58.661Z,25.85
2019-03-16T02:23:58.643Z,25.95
2019-03-16T02:24:58.715Z,25.66
2019-03-16T02:25:58.586Z,25.76
2019-03-16T02:26:58.570Z,25.66
2019-03-16T02:27:58.566Z,25.56
2019-03-16T02:28:58.525Z,25.47
2019-03-16T02:29:58.513Z,25.37
2019-03-16T02:30:58.482Z,25.56
2019-03-16T02:31:58.471Z,25.56
2019-03-16T02:33:14.905Z,25.56
2019-03-16T02:33:58.442Z,25.56
2019-03-16T02:34:58.498Z,25.56
2019-03-16T02:35:58.388Z,25.47
2019-03-16T02:36:58.354Z,25.56
2019-03-16T02:37:58.344Z,25.37
2019-03-16T02:38:58.312Z,25.85
2019-03-16T02:39:58.286Z,25.47
2019-03-16T02:40:58.270Z,25.56
2019-03-16T02:41:58.264Z,25.95
2019-03-16T02:42:58.247Z,25.47
2019-03-16T02:43:58.265Z,25.37
2019-03-16T02:44:58.186Z,25.37
2019-03-16T02:45:58.171Z,25.37
2019-03-16T02:46:58.220Z,25.85
2019-03-16T02:47:58.121Z,25.56
2019-03-16T02:48:58.101Z,25.56
2019-03-16T02:49:58.073Z,25.58
2019-03-16T02:50:58.080Z,25.56
2019-03-16T02:51:58.042Z,25.66
2019-03-16T02:52:58.012Z,25.56
2019-03-16T02:53:57.992Z,25.47
2019-03-16T02:54:57.991Z,25.47
2019-03-16T02:55:57.955Z,25.56
2019-03-16T02:56:57.982Z,25.76
2019-03-16T02:57:57.900Z,25.56
2019-03-16T02:58:57.892Z,25.47
2019-03-16T02:59:57.868Z,25.56
2019-03-16T03:00:57.843Z,25.56
2019-03-16T03:01:57.836Z,25.66
2019-03-16T03:02:57.958Z,25.85
2019-03-16T03:03:57.770Z,26.15
2019-03-16T03:04:57.760Z,25.56
2019-03-16T03:05:57.751Z,25.76
2019-03-16T03:06:57.718Z,25.76
2019-03-16T03:07:57.695Z,25.56
2019-03-16T03:08:57.669Z,25.56
2019-03-16T03:09:57.648Z,25.47
2019-03-16T03:10:57.647Z,25.56
2019-03-16T03:11:57.611Z,25.76
2019-03-16T03:12:57.586Z,25.56
2019-03-16T03:13:57.560Z,25.66
2019-03-16T03:14:57.547Z,25.76
2019-03-16T03:15:57.528Z,25.76
2019-03-16T03:16:57.496Z,25.85
2019-03-16T03:17:57.470Z,25.95
2019-03-16T03:18:57.452Z,25.66
2019-03-16T03:19:57.456Z,26.05
2019-03-16T03:20:57.422Z,25.95
2019-03-16T03:21:57.413Z,25.76
2019-03-16T03:22:57.364Z,25.76
2019-03-16T03:23:57.358Z,25.66
2019-03-16T03:24:57.345Z,25.85
2019-03-16T03:25:57.308Z,25.76
2019-03-16T03:26:57.285Z,25.85
2019-03-16T03:27:57.274Z,25.85
2019-03-16T03:28:57.239Z,25.95
2019-03-16T03:29:59.921Z,25.66
2019-03-16T03:30:57.220Z,25.66
2019-03-16T03:31:57.181Z,25.66
2019-03-16T03:32:57.473Z,25.76
2019-03-16T03:34:04.627Z,25.66
2019-03-16T03:34:57.241Z,25.56
2019-03-16T03:35:57.082Z,25.47
2019-03-16T03:36:57.091Z,25.76
2019-03-16T03:37:57.048Z,25.66
2019-03-16T03:38:57.034Z,25.66
2019-03-16T03:39:56.997Z,25.95
2019-03-16T03:41:01.298Z,25.95
2019-03-16T03:41:56.955Z,26.15
2019-03-16T03:42:56.950Z,25.95
2019-03-16T03:43:56.928Z,25.85
2019-03-16T03:44:56.904Z,25.85
2019-03-16T03:45:56.880Z,26.05
2019-03-16T03:46:56.857Z,25.76
2019-03-16T03:47:56.839Z,25.76
2019-03-16T03:48:56.815Z,26.05
2019-03-16T03:49:56.782Z,26.05
2019-03-16T03:50:56.767Z,26.05
2019-03-16T03:51:56.766Z,25.95
2019-03-16T03:52:56.724Z,26.15
2019-03-16T03:53:56.722Z,26.05
2019-03-16T03:54:56.677Z,26.05
2019-03-16T03:55:56.684Z,26.15
2019-03-16T03:56:56.650Z,26.25
2019-03-16T03:57:56.716Z,26.05
2019-03-16T03:58:56.589Z,26.15
2019-03-16T03:59:56.573Z,26.15
2019-03-16T04:00:56.577Z,26.34
2019-03-16T04:01:56.546Z,25.95
2019-03-16T04:02:56.527Z,26.34
2019-03-16T04:04:13.615Z,26.25
2019-03-16T04:04:56.473Z,26.05
2019-03-16T04:05:56.450Z,26.25
2019-03-16T04:06:56.431Z,26.25
2019-03-16T04:07:56.404Z,25.85
2019-03-16T04:08:56.404Z,25.85
2019-03-16T04:09:56.366Z,25.85
2019-03-16T04:10:56.339Z,25.95
2019-03-16T04:11:56.321Z,26.05
2019-03-16T04:12:56.313Z,25.95
2019-03-16T04:13:56.266Z,26.25
2019-03-16T04:14:56.256Z,25.76
2019-03-16T04:15:56.298Z,26.25
2019-03-16T04:16:56.222Z,26.34
2019-03-16T04:17:56.183Z,26.05
2019-03-16T04:18:56.172Z,26.34
2019-03-16T04:19:56.168Z,26.25
2019-03-16T04:20:56.123Z,26.05
2019-03-16T04:21:56.094Z,26.34
2019-03-16T04:22:56.073Z,26.25
2019-03-16T04:23:56.080Z,26.25
2019-03-16T04:24:56.039Z,26.25
2019-03-16T04:25:56.038Z,26.25
2019-03-16T04:26:55.992Z,26.73
2019-03-16T04:27:55.977Z,26.25
2019-03-16T04:28:55.961Z,26.53
2019-03-16T04:29:55.951Z,26.53
2019-03-16T04:30:55.907Z,26.53
2019-03-16T04:31:55.883Z,26.43
2019-03-16T04:32:55.867Z,26.63
2019-03-16T04:33:55.946Z,26.53
2019-03-16T04:34:55.826Z,26.63
2019-03-16T04:35:55.803Z,26.53
2019-03-16T04:36:55.781Z,26.63
2019-03-16T04:37:55.773Z,26.73
2019-03-16T04:38:55.754Z,26.63
2019-03-16T04:39:55.709Z,26.53
2019-03-16T04:40:55.693Z,26.53
2019-03-16T04:41:55.663Z,26.73
2019-03-16T04:42:55.653Z,26.63
2019-03-16T04:43:55.634Z,26.53
2019-03-16T04:44:55.607Z,26.73
2019-03-16T04:45:55.589Z,26.43
2019-03-16T04:46:55.567Z,26.82
2019-03-16T04:47:55.539Z,26.43
2019-03-16T04:48:55.521Z,26.63
2019-03-16T04:49:55.502Z,26.53
2019-03-16T04:50:55.506Z,26.63
2019-03-16T04:51:55.450Z,26.63
2019-03-16T04:52:55.443Z,26.73
2019-03-16T04:53:55.420Z,26.53
2019-03-16T04:54:55.398Z,26.53
2019-03-16T04:55:55.374Z,26.63
2019-03-16T04:56:55.356Z,26.53
2019-03-16T04:57:55.322Z,26.53
2019-03-16T04:58:55.318Z,26.63
2019-03-16T04:59:55.282Z,26.92
2019-03-16T05:00:55.263Z,26.43
2019-03-16T05:01:55.242Z,27.01
2019-03-16T05:02:55.319Z,26.82
2019-03-16T05:03:55.204Z,26.82
2019-03-16T05:04:55.175Z,26.73
2019-03-16T05:05:55.151Z,26.73
2019-03-16T05:06:55.135Z,26.82
2019-03-16T05:07:55.122Z,26.73
2019-03-16T05:08:55.089Z,26.73
2019-03-16T05:09:55.062Z,26.73
2019-03-16T05:10:55.042Z,26.63
2019-03-16T05:11:55.125Z,26.82
2019-03-16T05:12:55.002Z,26.82
2019-03-16T05:13:54.993Z,26.82
2019-03-16T05:14:54.955Z,26.63
2019-03-16T05:15:54.949Z,27.01
2019-03-16T05:16:54.921Z,26.73
2019-03-16T05:17:54.902Z,26.92
2019-03-16T05:18:54.869Z,26.63
2019-03-16T05:19:54.847Z,26.92
2019-03-16T05:20:54.833Z,26.73
2019-03-16T05:21:54.816Z,26.63
2019-03-16T05:22:54.790Z,26.92
2019-03-16T05:23:54.761Z,26.82
2019-03-16T05:24:54.746Z,26.73
2019-03-16T05:25:54.731Z,26.73
2019-03-16T05:26:54.707Z,26.92
2019-03-16T05:27:54.678Z,26.92
2019-03-16T05:28:54.661Z,26.92
2019-03-16T05:29:54.636Z,26.82
2019-03-16T05:30:54.627Z,27.11
2019-03-16T05:31:54.591Z,26.82
2019-03-16T05:32:54.573Z,26.92
2019-03-16T05:33:54.562Z,26.92
2019-03-16T05:34:59.156Z,26.92
2019-03-16T05:35:54.516Z,26.92
2019-03-16T05:36:56.008Z,26.82
2019-03-16T05:37:54.462Z,26.82
2019-03-16T05:38:54.448Z,26.92
2019-03-16T05:39:54.429Z,26.92
2019-03-16T05:40:54.419Z,26.92
2019-03-16T05:41:54.375Z,26.92
2019-03-16T05:42:54.353Z,26.82
2019-03-16T05:43:54.342Z,26.92
2019-03-16T05:44:54.315Z,26.82
2019-03-16T05:45:54.299Z,26.82
2019-03-16T05:46:54.266Z,26.82
2019-03-16T05:47:54.257Z,26.73
2019-03-16T05:48:54.233Z,26.73
2019-03-16T05:49:54.215Z,26.82
2019-03-16T05:50:57.186Z,26.92
2019-03-16T05:51:54.160Z,26.73
2019-03-16T05:52:54.152Z,26.73
2019-03-16T05:53:54.170Z,26.82
2019-03-16T05:54:54.100Z,26.73
2019-03-16T05:55:54.074Z,26.73
2019-03-16T05:56:54.057Z,26.82
2019-03-16T05:57:54.041Z,26.73
2019-03-16T05:58:54.020Z,26.82
2019-03-16T05:59:53.989Z,26.73
2019-03-16T06:00:53.973Z,26.73
2019-03-16T06:01:53.959Z,26.82
2019-03-16T06:02:53.934Z,26.82
2019-03-16T06:03:53.905Z,26.82
2019-03-16T06:04:53.887Z,26.73
2019-03-16T06:05:53.871Z,26.82
2019-03-16T06:06:53.853Z,26.73
2019-03-16T06:07:53.827Z,26.92
2019-03-16T06:08:53.802Z,26.82
2019-03-16T06:09:53.773Z,26.63
2019-03-16T06:10:53.760Z,26.82
2019-03-16T06:11:53.747Z,26.92
2019-03-16T06:12:53.713Z,26.73
2019-03-16T06:13:53.696Z,26.92
2019-03-16T06:14:53.666Z,26.53
2019-03-16T06:15:53.656Z,26.63
2019-03-16T06:16:53.630Z,26.63
2019-03-16T06:17:53.614Z,26.53
2019-03-16T06:18:53.578Z,26.53
2019-03-16T06:19:53.570Z,26.63
2019-03-16T06:20:53.541Z,26.53
2019-03-16T06:21:53.529Z,26.53
2019-03-16T06:22:53.544Z,26.53
2019-03-16T06:23:53.487Z,26.82
2019-03-16T06:24:53.493Z,27.31
2019-03-16T06:25:53.466Z,26.73
2019-03-16T06:26:53.432Z,26.53
2019-03-16T06:27:53.435Z,26.92
2019-03-16T06:28:53.392Z,26.92
2019-03-16T06:29:53.102Z,26.92
2019-03-16T06:30:53.364Z,26.92
2019-03-16T06:31:53.098Z,26.92
2019-03-16T06:32:53.312Z,26.73
2019-03-16T06:33:53.333Z,27.21
2019-03-16T06:34:53.001Z,26.92
2019-03-16T06:35:53.244Z,27.5
2019-03-16T06:36:53.221Z,27.21
2019-03-16T06:37:53.315Z,27.4
2019-03-16T06:38:53.176Z,27.11
2019-03-16T06:39:53.195Z,27.4
2019-03-16T06:40:53.119Z,27.4
2019-03-16T06:41:53.112Z,27.21
2019-03-16T06:42:53.119Z,27.21
2019-03-16T06:43:53.045Z,27.11
2019-03-16T06:44:52.783Z,27.21
2019-03-16T06:45:53.008Z,27.11
2019-03-16T06:46:52.989Z,27.4
2019-03-16T06:47:54.667Z,27.21
2019-03-16T06:48:52.945Z,27.31
2019-03-16T06:49:52.940Z,27.11
2019-03-16T06:50:52.904Z,27.11
2019-03-16T06:51:52.876Z,27.01
2019-03-16T06:52:52.952Z,27.31
2019-03-16T06:53:52.826Z,27.11
2019-03-16T06:54:52.820Z,27.31
2019-03-16T06:55:52.794Z,27.31
2019-03-16T06:56:52.771Z,27.11
2019-03-16T06:57:52.740Z,27.01
2019-03-16T06:58:52.725Z,27.31
2019-03-16T06:59:52.708Z,27.5
2019-03-16T07:00:52.720Z,27.5
2019-03-16T07:01:52.652Z,27.31
2019-03-16T07:02:52.731Z,27.31
2019-03-16T07:03:52.482Z,27.6
2019-03-16T07:04:52.690Z,27.4
2019-03-16T07:05:52.646Z,27.31
2019-03-16T07:06:52.552Z,27.31
2019-03-16T07:07:52.545Z,27.21
2019-03-16T07:08:52.512Z,27.4
2019-03-16T07:09:52.494Z,27.21
2019-03-16T07:10:52.460Z,27.31
2019-03-16T07:11:52.441Z,27.31
2019-03-16T07:12:52.429Z,27.21
2019-03-16T07:13:52.408Z,27.21
2019-03-16T07:14:52.393Z,27.31
2019-03-16T07:15:52.356Z,27.21
2019-03-16T07:17:04.442Z,27.21
2019-03-16T07:17:52.323Z,27.21
2019-03-16T07:19:01.305Z,27.21
2019-03-16T07:19:52.267Z,27.21
2019-03-16T07:20:52.250Z,27.21
2019-03-16T07:21:52.225Z,27.21
2019-03-16T07:22:52.267Z,27.11
2019-03-16T07:23:52.182Z,27.5
2019-03-16T07:24:54.112Z,27.21
2019-03-16T07:25:52.135Z,27.21
2019-03-16T07:26:52.171Z,27.31
2019-03-16T07:27:52.106Z,27.4
2019-03-16T07:28:52.108Z,27.11
2019-03-16T07:29:52.127Z,27.11
2019-03-16T07:30:51.854Z,27.11
2019-03-16T07:31:52.123Z,27.21
2019-03-16T07:32:52.082Z,27.6
2019-03-16T07:33:52.011Z,27.21
2019-03-16T07:34:51.993Z,27.5
2019-03-16T07:35:51.931Z,27.7
2019-03-16T07:36:51.904Z,27.5
2019-03-16T07:37:51.890Z,27.21
2019-03-16T07:38:51.858Z,27.7
2019-03-16T07:39:51.847Z,27.5
2019-03-16T07:40:51.822Z,27.01
2019-03-16T07:41:51.805Z,27.6
2019-03-16T07:42:51.776Z,27.6
2019-03-16T07:43:51.751Z,27.6
2019-03-16T07:44:51.738Z,27.6
2019-03-16T07:45:51.733Z,27.5
2019-03-16T07:46:51.692Z,27.6
2019-03-16T07:47:51.665Z,27.7
2019-03-16T07:48:51.652Z,27.6
2019-03-16T07:49:51.633Z,27.6
2019-03-16T07:50:51.611Z,27.7
2019-03-16T07:51:51.580Z,27.4
2019-03-16T07:52:51.612Z,27.4
2019-03-16T07:53:51.301Z,27.4
2019-03-16T07:54:51.524Z,27.4
2019-03-16T07:55:51.495Z,27.5
2019-03-16T07:56:51.473Z,27.5
2019-03-16T07:57:51.453Z,27.31
2019-03-16T07:58:51.439Z,27.21
2019-03-16T07:59:51.418Z,27.4
2019-03-16T08:00:51.392Z,27.6
2019-03-16T08:01:51.361Z,27.89
2019-03-16T08:02:51.365Z,27.6
2019-03-16T08:03:51.090Z,27.6
2019-03-16T08:04:51.339Z,27.6
2019-03-16T08:05:51.276Z,28.08
2019-03-16T08:06:51.260Z,28.08
2019-03-16T08:07:51.252Z,27.79
2019-03-16T08:08:51.246Z,27.79
2019-03-16T08:09:51.205Z,27.79
2019-03-16T08:10:51.172Z,27.98
2019-03-16T08:11:51.161Z,27.98
2019-03-16T08:12:51.133Z,27.89
2019-03-16T08:13:51.117Z,27.98
2019-03-16T08:14:51.086Z,28.18
2019-03-16T08:15:51.059Z,27.91
2019-03-16T08:16:51.052Z,27.91
2019-03-16T08:17:51.129Z,28.09
2019-03-16T08:18:51.103Z,27.81
2019-03-16T08:19:50.974Z,28.18
2019-03-16T08:20:50.964Z,28.18
2019-03-16T08:21:50.945Z,28.39
2019-03-16T08:22:50.923Z,28.39
2019-03-16T08:23:53.640Z,28.18
2019-03-16T08:24:50.875Z,28.09
2019-03-16T08:25:50.845Z,27.98
2019-03-16T08:26:50.836Z,28.08
2019-03-16T08:27:56.432Z,28
2019-03-16T08:28:50.787Z,28.08
2019-03-16T08:29:50.759Z,28.38
2019-03-16T08:30:50.755Z,28.18
2019-03-16T08:31:50.732Z,28.08
2019-03-16T08:32:50.703Z,28.28
2019-03-16T08:33:50.674Z,28.47
2019-03-16T08:34:50.664Z,27.98
2019-03-16T08:35:50.647Z,28.09
2019-03-16T08:36:50.617Z,28.08
2019-03-16T08:37:50.587Z,27.98
2019-03-16T08:38:50.566Z,27.89
2019-03-16T08:39:50.557Z,27.91
2019-03-16T08:40:50.537Z,28.47
2019-03-16T08:41:50.532Z,28.47
2019-03-16T08:42:51.509Z,28.28
2019-03-16T08:43:50.478Z,28.47
2019-03-16T08:44:50.447Z,27.98
2019-03-16T08:45:50.428Z,28.28
2019-03-16T08:46:50.397Z,28.28
2019-03-16T08:47:50.376Z,28.18
2019-03-16T08:48:50.459Z,27.98
2019-03-16T08:49:50.374Z,28.28
2019-03-16T08:50:50.313Z,28.49
2019-03-16T08:51:50.288Z,28.08
2019-03-16T08:52:50.277Z,28.18
2019-03-16T08:53:50.278Z,28.38
2019-03-16T08:54:50.237Z,28.47
2019-03-16T08:55:50.215Z,28.08
2019-03-16T08:56:50.192Z,28.18
2019-03-16T08:57:50.159Z,28.38
2019-03-16T08:58:50.150Z,28.38
2019-03-16T08:59:50.151Z,28.29
2019-03-16T09:00:50.102Z,28.47
2019-03-16T09:01:50.214Z,28.39
2019-03-16T09:02:50.062Z,28.38
2019-03-16T09:03:50.049Z,28.47
2019-03-16T09:04:50.016Z,28.38
2019-03-16T09:05:49.989Z,28.38
2019-03-16T09:06:52.782Z,28.58
2019-03-16T09:07:49.956Z,28.58
2019-03-16T09:08:49.940Z,28.19
2019-03-16T09:09:49.903Z,28.47
2019-03-16T09:10:49.882Z,28.38
2019-03-16T09:11:49.870Z,28.39
2019-03-16T09:12:57.613Z,28.38
2019-03-16T09:13:49.828Z,28.56
2019-03-16T09:14:49.796Z,28.28
2019-03-16T09:15:49.788Z,28.39
2019-03-16T09:16:49.760Z,28.19
2019-03-16T09:17:49.742Z,28.49
2019-03-16T09:18:49.718Z,28.28
2019-03-16T09:19:49.702Z,28.39
2019-03-16T09:20:49.679Z,28.28
2019-03-16T09:21:49.656Z,28.28
2019-03-16T09:22:49.628Z,28.29
2019-03-16T09:23:49.600Z,28.19
2019-03-16T09:24:49.586Z,28.49
2019-03-16T09:25:49.569Z,28.28
2019-03-16T09:26:49.566Z,27.98
2019-03-16T09:27:49.515Z,28.18
2019-03-16T09:29:10.261Z,28.28
2019-03-16T09:29:49.473Z,28.19
2019-03-16T09:30:49.466Z,28.18
2019-03-16T09:31:49.433Z,28.58
2019-03-16T09:32:49.413Z,28.29
2019-03-16T09:33:49.390Z,28.47
2019-03-16T09:34:49.387Z,28.29
2019-03-16T09:35:49.358Z,28.49
2019-03-16T09:36:49.329Z,28.39
2019-03-16T09:37:49.301Z,28.49
2019-03-16T09:38:49.291Z,28.39
2019-03-16T09:39:49.268Z,28.29
2019-03-16T09:40:49.240Z,28.19
2019-03-16T09:41:49.219Z,28.49
2019-03-16T09:42:49.203Z,28.29
2019-03-16T09:43:49.182Z,28.39
2019-03-16T09:44:49.155Z,28.39
2019-03-16T09:45:49.139Z,28.39
2019-03-16T09:46:49.108Z,28.19
2019-03-16T09:47:49.098Z,28.49
2019-03-16T09:48:49.073Z,28.29
2019-03-16T09:49:49.059Z,28.39
2019-03-16T09:50:49.032Z,28.29
2019-03-16T09:51:49.011Z,28.39
2019-03-16T09:52:48.989Z,28.19
2019-03-16T09:53:48.960Z,28.49
2019-03-16T09:54:48.946Z,28.49
2019-03-16T09:55:48.923Z,28.19
2019-03-16T09:57:00.473Z,28.39
2019-03-16T09:57:48.873Z,28.09
2019-03-16T09:58:48.851Z,28.39
2019-03-16T09:59:48.840Z,28.29
2019-03-16T10:00:48.811Z,28.39
2019-03-16T10:01:48.799Z,28.39
2019-03-16T10:02:48.814Z,28.29
2019-03-16T10:03:48.754Z,28.39
2019-03-16T10:04:48.729Z,28.19
2019-03-16T10:05:48.711Z,28.39
2019-03-16T10:06:48.678Z,28.29
2019-03-16T10:07:48.661Z,28.49
2019-03-16T10:08:48.653Z,28.29
2019-03-16T10:09:48.630Z,28.39
2019-03-16T10:10:48.599Z,28.29
2019-03-16T10:11:48.573Z,28.39
2019-03-16T10:12:48.559Z,28.29
2019-03-16T10:13:48.541Z,28.39
2019-03-16T10:14:48.519Z,28.49
2019-03-16T10:15:48.486Z,28.39
2019-03-16T10:16:48.473Z,28.29
2019-03-16T10:17:48.473Z,28.19
2019-03-16T10:18:48.505Z,28.19
2019-03-16T10:19:48.410Z,28.29
2019-03-16T10:20:48.387Z,28.49
2019-03-16T10:21:48.359Z,28.49
2019-03-16T10:22:48.348Z,28.29
2019-03-16T10:23:48.338Z,28.39
2019-03-16T10:24:48.299Z,28.19
2019-03-16T10:25:48.276Z,28.68
2019-03-16T10:26:48.257Z,28.49
2019-03-16T10:27:48.242Z,28.49
2019-03-16T10:28:48.212Z,28.39
2019-03-16T10:29:48.187Z,28.58
2019-03-16T10:30:48.169Z,28.39
2019-03-16T10:31:48.156Z,28.49
2019-03-16T10:32:48.127Z,28.19
2019-03-16T10:33:48.117Z,28.49
2019-03-16T10:34:48.079Z,28.39
2019-03-16T10:35:48.068Z,28.49
2019-03-16T10:36:48.045Z,28.29
2019-03-16T10:37:48.025Z,28.19
2019-03-16T10:38:47.996Z,28.39
2019-03-16T10:39:47.976Z,28.09
2019-03-16T10:40:47.961Z,28.49
2019-03-16T10:41:47.941Z,28.39
2019-03-16T10:42:47.913Z,28.39
2019-03-16T10:43:47.887Z,28.09
2019-03-16T10:44:47.872Z,28.19
2019-03-16T10:45:47.855Z,28.09
2019-03-16T10:46:47.835Z,28.58
2019-03-16T10:47:47.803Z,28.39
2019-03-16T10:48:47.785Z,28
2019-03-16T10:49:47.760Z,28.39
2019-03-16T10:50:47.756Z,28
2019-03-16T10:51:47.717Z,28.09
2019-03-16T10:52:47.706Z,28.09
2019-03-16T10:53:47.674Z,28.09
2019-03-16T10:54:47.666Z,28.39
2019-03-16T10:55:47.645Z,28
2019-03-16T10:56:47.615Z,28.19
2019-03-16T10:57:47.589Z,28.39
2019-03-16T10:58:58.748Z,28.09
2019-03-16T10:59:47.556Z,28.09
2019-03-16T11:00:47.543Z,28.49
2019-03-16T11:01:47.504Z,28.29
2019-03-16T11:02:47.484Z,28.29
2019-03-16T11:03:47.476Z,28.29
2019-03-16T11:04:47.444Z,28.19
2019-03-16T11:05:47.435Z,28.39
2019-03-16T11:06:47.427Z,28.39
2019-03-16T11:07:47.385Z,28.68
2019-03-16T11:08:47.379Z,28.29
2019-03-16T11:09:47.351Z,28.39
2019-03-16T11:10:47.345Z,28.29
2019-03-16T11:11:47.337Z,28.39
2019-03-16T11:12:47.279Z,28.49
2019-03-16T11:13:47.283Z,28.39
2019-03-16T11:14:47.247Z,28.39
2019-03-16T11:15:47.230Z,28.39
2019-03-16T11:16:47.191Z,28.19
2019-03-16T11:17:47.186Z,28.39
2019-03-16T11:18:47.151Z,28.39
2019-03-16T11:19:47.115Z,28.19
2019-03-16T11:20:47.107Z,28.49
2019-03-16T11:21:47.076Z,28.29
2019-03-16T11:22:47.067Z,28.19
2019-03-16T11:23:47.107Z,28.49
2019-03-16T11:24:46.810Z,28.09
2019-03-16T11:25:47.046Z,28.29
2019-03-16T11:26:46.991Z,28.49
2019-03-16T11:27:46.957Z,28.49
2019-03-16T11:28:46.967Z,28.39
2019-03-16T11:29:46.928Z,28.49
2019-03-16T11:30:46.989Z,28.39
2019-03-16T11:31:46.633Z,28.39
2019-03-16T11:32:46.880Z,28.39
2019-03-16T11:33:48.354Z,28.68
2019-03-16T11:34:46.877Z,28.49
2019-03-16T11:35:46.792Z,28.49
2019-03-16T11:36:46.760Z,28.39
2019-03-16T11:37:46.744Z,28.29
2019-03-16T11:38:46.713Z,28.19
2019-03-16T11:39:46.705Z,28.39
2019-03-16T11:40:46.677Z,28.39
2019-03-16T11:41:46.660Z,28.58
2019-03-16T11:42:46.629Z,28.68
2019-03-16T11:43:46.608Z,28.68
2019-03-16T11:44:46.598Z,28.19
2019-03-16T11:45:46.575Z,28.29
2019-03-16T11:46:46.548Z,28.09
2019-03-16T11:47:46.529Z,28.09
2019-03-16T11:48:46.507Z,28.39
2019-03-16T11:49:46.491Z,28.09
2019-03-16T11:50:48.769Z,28.19
2019-03-16T11:51:46.433Z,28.29
2019-03-16T11:52:46.419Z,28
2019-03-16T11:53:46.467Z,28
2019-03-16T11:54:46.381Z,28.19
2019-03-16T11:55:46.349Z,27.91
2019-03-16T11:56:46.334Z,28.19
2019-03-16T11:57:46.307Z,28.09
2019-03-16T11:58:46.301Z,27.81
2019-03-16T11:59:46.277Z,28.39
2019-03-16T12:00:46.249Z,28.19
2019-03-16T12:01:46.224Z,28.29
2019-03-16T12:02:46.207Z,28.19
2019-03-16T12:03:46.197Z,28.09
2019-03-16T12:04:46.161Z,28.19
2019-03-16T12:05:46.140Z,28.19
2019-03-16T12:06:46.145Z,27.91
2019-03-16T12:07:46.121Z,28
2019-03-16T12:08:46.084Z,27.91
2019-03-16T12:09:46.063Z,28.19
2019-03-16T12:10:46.033Z,28
2019-03-16T12:11:46.030Z,28
2019-03-16T12:12:45.998Z,27.91
2019-03-16T12:13:46.542Z,28
2019-03-16T12:14:45.953Z,27.91
2019-03-16T12:15:45.924Z,28.09
2019-03-16T12:16:45.907Z,28
2019-03-16T12:17:45.891Z,28
2019-03-16T12:18:45.862Z,28.09
2019-03-16T12:19:45.839Z,27.81
2019-03-16T12:20:45.821Z,28.19
2019-03-16T12:21:45.804Z,27.91
2019-03-16T12:22:45.784Z,27.61
2019-03-16T12:23:45.755Z,27.71
2019-03-16T12:24:45.744Z,27.61
2019-03-16T12:25:45.717Z,27.61
2019-03-16T12:26:45.702Z,27.42
2019-03-16T12:27:45.679Z,27.91
2019-03-16T12:28:45.654Z,27.32
2019-03-16T12:29:45.630Z,27.42
2019-03-16T12:30:45.615Z,27.61
2019-03-16T12:31:45.594Z,27.61
2019-03-16T12:32:45.572Z,27.81
2019-03-16T12:33:45.544Z,27.71
2019-03-16T12:34:45.529Z,27.61
2019-03-16T12:35:45.540Z,27.71
2019-03-16T12:36:45.481Z,28
2019-03-16T12:37:45.453Z,27.81
2019-03-16T12:38:45.445Z,27.03
2019-03-16T12:39:45.432Z,27.51
2019-03-16T12:40:45.398Z,27.22
2019-03-16T12:41:45.380Z,27.71
2019-03-16T12:42:45.347Z,27.03
2019-03-16T12:43:45.337Z,26.93
2019-03-16T12:44:45.324Z,27.13
2019-03-16T12:45:45.293Z,27.32
2019-03-16T12:46:45.261Z,26.93
2019-03-16T12:47:45.241Z,27.32
2019-03-16T12:48:45.232Z,27.32
2019-03-16T12:49:45.208Z,27.32
2019-03-16T12:50:45.183Z,27.22
2019-03-16T12:51:45.195Z,27.22
2019-03-16T12:52:45.144Z,27.32
2019-03-16T12:53:45.122Z,27.13
2019-03-16T12:54:45.132Z,27.32